createdAt,value
2018-06-07T00:01:01.506Z,26.67
2018-06-07T00:02:10.657Z,26.58
2018-06-07T00:03:20.592Z,26.62
2018-06-07T00:04:30.512Z,26.66
2018-06-07T00:05:39.688Z,26.69
2018-06-07T00:06:49.389Z,26.67
2018-06-07T00:07:58.329Z,26.62
2018-06-07T00:09:08.279Z,26.67
2018-06-07T00:10:17.718Z,26.66
2018-06-07T00:11:27.409Z,26.65
2018-06-07T00:12:37.078Z,26.65
2018-06-07T00:13:47.063Z,26.69
2018-06-07T00:14:56.510Z,26.67
2018-06-07T00:16:05.449Z,26.65
2018-06-07T00:17:14.624Z,26.58
2018-06-07T00:18:24.347Z,26.62
2018-06-07T00:19:33.779Z,26.65
2018-06-07T00:20:43.225Z,26.67
2018-06-07T00:21:52.894Z,26.65
2018-06-07T00:23:02.343Z,26.65
2018-06-07T00:24:11.503Z,26.69
2018-06-07T00:25:20.156Z,26.62
2018-06-07T00:26:29.827Z,26.63
2018-06-07T00:27:39.806Z,26.65
2018-06-07T00:28:48.964Z,26.65
2018-06-07T00:29:58.393Z,26.63
2018-06-07T00:31:07.548Z,26.62
2018-06-07T00:32:16.966Z,26.62
2018-06-07T00:33:26.109Z,26.66
2018-06-07T00:34:35.519Z,26.73
2018-06-07T00:35:45.174Z,26.67
2018-06-07T00:36:54.598Z,26.65
2018-06-07T00:38:04.007Z,26.63
2018-06-07T00:39:12.988Z,26.65
2018-06-07T00:40:22.694Z,26.65
2018-06-07T00:41:31.856Z,26.66
2018-06-07T00:42:41.523Z,26.6
2018-06-07T00:43:50.937Z,26.62
2018-06-07T00:45:00.363Z,26.65
2018-06-07T00:46:09.513Z,26.65
2018-06-07T00:47:18.943Z,26.72
2018-06-07T00:48:28.112Z,26.63
2018-06-07T00:49:37.517Z,26.65
2018-06-07T00:50:47.198Z,26.63
2018-06-07T00:51:56.631Z,26.63
2018-06-07T00:53:05.774Z,26.67
2018-06-07T00:54:15.461Z,26.67
2018-06-07T00:55:24.886Z,26.62
2018-06-07T00:56:34.333Z,26.65
2018-06-07T00:57:43.761Z,26.66
2018-06-07T00:58:53.425Z,26.63
2018-06-07T01:00:02.855Z,26.63
2018-06-07T01:01:12.282Z,26.67
2018-06-07T01:02:21.452Z,26.66
2018-06-07T01:03:31.137Z,26.6
2018-06-07T01:04:40.809Z,26.57
2018-06-07T01:05:49.720Z,26.54
2018-06-07T01:06:59.185Z,26.63
2018-06-07T01:08:08.329Z,26.54
2018-06-07T01:09:17.221Z,26.55
2018-06-07T01:10:26.898Z,26.66
2018-06-07T01:11:36.336Z,26.6
2018-06-07T01:12:46.033Z,26.54
2018-06-07T01:13:54.931Z,26.58
2018-06-07T01:15:04.084Z,26.54
2018-06-07T01:16:13.766Z,26.55
2018-06-07T01:17:23.451Z,26.57
2018-06-07T01:18:32.616Z,26.57
2018-06-07T01:19:41.514Z,26.54
2018-06-07T01:20:50.931Z,26.55
2018-06-07T01:22:00.619Z,26.6
2018-06-07T01:23:09.771Z,26.57
2018-06-07T01:24:19.194Z,26.54
2018-06-07T01:25:28.603Z,26.57
2018-06-07T01:26:37.753Z,26.54
2018-06-07T01:27:46.648Z,26.52
2018-06-07T01:28:55.797Z,26.6
2018-06-07T01:30:04.955Z,26.57
2018-06-07T01:31:13.849Z,26.54
2018-06-07T01:32:23.011Z,26.6
2018-06-07T01:33:32.416Z,26.54
2018-06-07T01:34:41.887Z,26.58
2018-06-07T01:35:51.545Z,26.57
2018-06-07T01:37:00.962Z,26.5
2018-06-07T01:38:10.108Z,26.54
2018-06-07T01:39:19.539Z,26.51
2018-06-07T01:40:29.460Z,26.5
2018-06-07T01:41:39.155Z,26.48
2018-06-07T01:42:48.303Z,26.52
2018-06-07T01:43:57.715Z,26.54
2018-06-07T01:45:07.415Z,26.54
2018-06-07T01:46:16.568Z,26.48
2018-06-07T01:47:25.988Z,26.51
2018-06-07T01:48:35.187Z,26.57
2018-06-07T01:49:44.099Z,26.52
2018-06-07T01:50:53.250Z,26.6
2018-06-07T01:52:02.927Z,26.58
2018-06-07T01:53:11.815Z,26.6
2018-06-07T01:54:21.243Z,26.52
2018-06-07T01:55:30.649Z,26.47
2018-06-07T01:56:40.307Z,26.6
2018-06-07T01:57:49.476Z,26.48
2018-06-07T01:58:58.384Z,26.62
2018-06-07T02:00:08.049Z,26.54
2018-06-07T02:01:17.476Z,26.51
2018-06-07T02:02:26.885Z,26.54
2018-06-07T02:03:36.307Z,26.54
2018-06-07T02:04:45.460Z,26.52
2018-06-07T02:05:54.880Z,26.5
2018-06-07T02:07:04.539Z,26.45
2018-06-07T02:08:13.691Z,26.51
2018-06-07T02:09:22.836Z,26.54
2018-06-07T02:10:31.726Z,26.52
2018-06-07T02:11:41.138Z,26.5
2018-06-07T02:12:51.065Z,26.48
2018-06-07T02:14:00.743Z,26.44
2018-06-07T02:15:09.926Z,26.52
2018-06-07T02:16:18.840Z,26.48
2018-06-07T02:17:28.774Z,26.5
2018-06-07T02:18:38.181Z,26.47
2018-06-07T02:19:47.837Z,26.4
2018-06-07T02:20:56.995Z,26.4
2018-06-07T02:22:06.157Z,26.44
2018-06-07T02:23:15.586Z,26.44
2018-06-07T02:24:24.730Z,26.45
2018-06-07T02:25:34.132Z,26.47
2018-06-07T02:26:43.810Z,26.44
2018-06-07T02:27:53.470Z,26.43
2018-06-07T02:29:03.131Z,26.43
2018-06-07T02:30:12.814Z,26.44
2018-06-07T02:31:22.508Z,26.44
2018-06-07T02:32:32.180Z,26.43
2018-06-07T02:33:41.881Z,26.43
2018-06-07T02:34:51.552Z,26.4
2018-06-07T02:36:01.513Z,26.43
2018-06-07T02:37:10.667Z,26.39
2018-06-07T02:38:20.329Z,26.36
2018-06-07T02:39:29.541Z,26.32
2018-06-07T02:40:38.981Z,26.39
2018-06-07T02:41:48.396Z,26.36
2018-06-07T02:42:58.082Z,26.35
2018-06-07T02:44:07.513Z,26.33
2018-06-07T02:45:17.486Z,26.35
2018-06-07T02:46:26.132Z,26.33
2018-06-07T02:47:35.797Z,26.33
2018-06-07T02:48:45.196Z,26.35
2018-06-07T02:49:54.860Z,26.37
2018-06-07T02:51:03.500Z,26.35
2018-06-07T02:52:12.913Z,26.32
2018-06-07T02:53:22.650Z,26.33
2018-06-07T02:54:32.069Z,26.33
2018-06-07T02:55:41.994Z,26.43
2018-06-07T02:56:51.204Z,26.35
2018-06-07T02:58:01.144Z,26.4
2018-06-07T02:59:10.028Z,26.4
2018-06-07T03:00:19.691Z,26.44
2018-06-07T03:01:28.892Z,26.43
2018-06-07T03:02:38.570Z,26.4
2018-06-07T03:03:47.992Z,26.4
2018-06-07T03:04:57.144Z,26.43
2018-06-07T03:06:07.079Z,26.35
2018-06-07T03:07:16.737Z,26.37
2018-06-07T03:08:26.138Z,26.36
2018-06-07T03:09:35.797Z,26.36
2018-06-07T03:10:45.224Z,26.37
2018-06-07T03:11:54.883Z,26.4
2018-06-07T03:13:04.342Z,26.33
2018-06-07T03:14:13.487Z,26.36
2018-06-07T03:15:22.123Z,26.4
2018-06-07T03:16:31.534Z,26.37
2018-06-07T03:17:40.942Z,26.36
2018-06-07T03:18:50.604Z,26.33
2018-06-07T03:19:59.509Z,26.39
2018-06-07T03:21:08.930Z,26.4
2018-06-07T03:22:18.866Z,26.37
2018-06-07T03:23:28.785Z,26.43
2018-06-07T03:24:38.454Z,26.39
2018-06-07T03:25:47.600Z,26.36
2018-06-07T03:26:56.753Z,26.39
2018-06-07T03:28:06.433Z,26.43
2018-06-07T03:29:15.840Z,26.4
2018-06-07T03:30:25.580Z,26.43
2018-06-07T03:31:35.211Z,26.37
2018-06-07T03:32:45.001Z,26.4
2018-06-07T03:33:54.942Z,26.39
2018-06-07T03:35:04.620Z,26.39
2018-06-07T03:36:13.767Z,26.36
2018-06-07T03:37:23.679Z,26.4
2018-06-07T03:38:33.088Z,26.4
2018-06-07T03:39:42.247Z,26.37
2018-06-07T03:40:51.667Z,26.44
2018-06-07T03:42:00.571Z,26.43
2018-06-07T03:43:09.718Z,26.43
2018-06-07T03:44:19.148Z,26.43
2018-06-07T03:45:28.547Z,26.45
2018-06-07T03:46:37.442Z,26.44
2018-06-07T03:47:46.600Z,26.4
2018-06-07T03:48:55.493Z,26.47
2018-06-07T03:50:04.679Z,26.47
2018-06-07T03:51:14.087Z,26.45
2018-06-07T03:52:24.012Z,26.44
2018-06-07T03:53:34.003Z,26.48
2018-06-07T03:54:43.172Z,26.37
2018-06-07T03:55:52.327Z,26.48
2018-06-07T03:57:02.009Z,26.47
2018-06-07T03:58:11.689Z,26.44
2018-06-07T03:59:21.148Z,26.45
2018-06-07T04:00:30.329Z,26.43
2018-06-07T04:01:39.471Z,26.48
2018-06-07T04:02:48.893Z,26.43
2018-06-07T04:03:58.055Z,26.44
2018-06-07T04:05:07.311Z,26.44
2018-06-07T04:06:16.809Z,26.39
2018-06-07T04:07:26.033Z,26.44
2018-06-07T04:08:35.194Z,26.43
2018-06-07T04:09:44.636Z,26.43
2018-06-07T04:10:54.055Z,26.44
2018-06-07T04:12:03.227Z,26.44
2018-06-07T04:13:12.656Z,26.44
2018-06-07T04:14:22.331Z,26.44
2018-06-07T04:15:31.493Z,26.37
2018-06-07T04:16:40.919Z,26.4
2018-06-07T04:17:50.078Z,26.4
2018-06-07T04:18:59.760Z,26.47
2018-06-07T04:20:08.669Z,26.44
2018-06-07T04:21:18.345Z,26.47
2018-06-07T04:22:27.499Z,26.44
2018-06-07T04:23:37.200Z,26.44
2018-06-07T04:24:46.875Z,26.48
2018-06-07T04:25:56.290Z,26.43
2018-06-07T04:27:05.716Z,26.45
2018-06-07T04:28:15.402Z,26.44
2018-06-07T04:29:24.799Z,26.44
2018-06-07T04:30:34.509Z,26.43
2018-06-07T04:31:43.911Z,26.44
2018-06-07T04:32:53.852Z,26.44
2018-06-07T04:34:03.053Z,26.44
2018-06-07T04:35:12.719Z,26.44
2018-06-07T04:36:22.175Z,26.47
2018-06-07T04:37:31.849Z,26.43
2018-06-07T04:38:41.281Z,26.4
2018-06-07T04:39:50.447Z,26.43
2018-06-07T04:40:59.616Z,26.44
2018-06-07T04:42:09.044Z,26.4
2018-06-07T04:43:18.743Z,26.45
2018-06-07T04:44:28.188Z,26.45
2018-06-07T04:45:37.588Z,26.44
2018-06-07T04:46:47.521Z,26.44
2018-06-07T04:47:57.186Z,26.45
2018-06-07T04:49:05.842Z,26.44
2018-06-07T04:50:15.530Z,26.43
2018-06-07T04:51:24.979Z,26.44
2018-06-07T04:52:34.457Z,26.43
2018-06-07T04:53:43.864Z,26.44
2018-06-07T04:54:53.085Z,26.44
2018-06-07T04:56:02.234Z,26.39
2018-06-07T04:57:12.173Z,26.43
2018-06-07T04:58:21.321Z,26.43
2018-06-07T04:59:30.750Z,26.39
2018-06-07T05:00:40.346Z,26.43
2018-06-07T05:01:49.859Z,26.45
2018-06-07T05:02:59.262Z,26.43
2018-06-07T05:04:08.169Z,26.51
2018-06-07T05:05:17.835Z,26.45
2018-06-07T05:06:27.041Z,26.43
2018-06-07T05:07:36.199Z,26.47
2018-06-07T05:08:45.615Z,26.48
2018-06-07T05:09:55.371Z,26.4
2018-06-07T05:11:04.792Z,26.43
2018-06-07T05:12:14.460Z,26.52
2018-06-07T05:13:24.200Z,26.51
2018-06-07T05:14:33.116Z,26.5
2018-06-07T05:15:43.079Z,26.5
2018-06-07T05:16:52.757Z,26.52
2018-06-07T05:18:01.914Z,26.51
2018-06-07T05:19:11.337Z,26.55
2018-06-07T05:20:20.501Z,26.55
2018-06-07T05:21:29.928Z,26.55
2018-06-07T05:22:39.866Z,26.54
2018-06-07T05:23:49.540Z,26.52
2018-06-07T05:24:59.089Z,26.52
2018-06-07T05:26:08.251Z,26.54
2018-06-07T05:27:17.659Z,26.55
2018-06-07T05:28:27.061Z,26.62
2018-06-07T05:29:36.718Z,26.48
2018-06-07T05:30:46.379Z,26.52
2018-06-07T05:31:55.804Z,26.54
2018-06-07T05:33:05.846Z,26.51
2018-06-07T05:34:15.268Z,26.55
2018-06-07T05:35:24.700Z,26.52
2018-06-07T05:36:33.858Z,26.5
2018-06-07T05:37:43.536Z,26.48
2018-06-07T05:38:52.996Z,26.51
2018-06-07T05:40:02.512Z,26.57
2018-06-07T05:41:11.924Z,26.52
2018-06-07T05:42:21.596Z,26.52
2018-06-07T05:43:31.277Z,26.5
2018-06-07T05:44:40.697Z,26.54
2018-06-07T05:45:49.859Z,26.52
2018-06-07T05:46:59.295Z,26.52
2018-06-07T05:48:08.616Z,26.51
2018-06-07T05:49:17.539Z,26.62
2018-06-07T05:50:27.220Z,26.5
2018-06-07T05:51:37.207Z,26.58
2018-06-07T05:52:47.074Z,26.47
2018-06-07T05:53:56.757Z,26.62
2018-06-07T05:55:06.164Z,26.5
2018-06-07T05:56:16.227Z,26.63
2018-06-07T05:57:25.883Z,26.57
2018-06-07T05:58:34.827Z,26.6
2018-06-07T05:59:44.334Z,26.63
2018-06-07T06:00:53.888Z,26.51
2018-06-07T06:02:03.379Z,26.62
2018-06-07T06:03:13.185Z,26.55
2018-06-07T06:04:22.716Z,26.54
2018-06-07T06:05:32.256Z,26.58
2018-06-07T06:06:42.022Z,26.63
2018-06-07T06:07:51.703Z,26.62
2018-06-07T06:09:01.130Z,26.6
2018-06-07T06:10:10.290Z,26.6
2018-06-07T06:11:19.840Z,26.63
2018-06-07T06:12:29.615Z,26.65
2018-06-07T06:13:39.027Z,26.65
2018-06-07T06:14:48.470Z,26.69
2018-06-07T06:15:57.895Z,26.62
2018-06-07T06:17:07.067Z,26.7
2018-06-07T06:18:17.008Z,26.63
2018-06-07T06:19:26.161Z,26.6
2018-06-07T06:20:36.165Z,26.58
2018-06-07T06:21:45.855Z,26.63
2018-06-07T06:22:55.625Z,26.65
2018-06-07T06:24:05.358Z,26.65
2018-06-07T06:25:15.324Z,26.65
2018-06-07T06:26:24.792Z,26.66
2018-06-07T06:27:33.951Z,26.58
2018-06-07T06:28:43.909Z,26.65
2018-06-07T06:29:53.343Z,26.66
2018-06-07T06:31:02.547Z,26.65
2018-06-07T06:32:12.240Z,26.62
2018-06-07T06:33:21.433Z,26.6
2018-06-07T06:34:31.486Z,26.67
2018-06-07T06:35:40.694Z,26.69
2018-06-07T06:36:50.117Z,26.65
2018-06-07T06:37:59.287Z,26.65
2018-06-07T06:39:09.839Z,26.62
2018-06-07T06:40:19.032Z,26.67
2018-06-07T06:41:28.976Z,26.65
2018-06-07T06:42:38.699Z,26.66
2018-06-07T06:43:48.148Z,26.58
2018-06-07T06:44:57.563Z,26.66
2018-06-07T06:46:06.226Z,26.67
2018-06-07T06:47:15.158Z,26.66
2018-06-07T06:48:24.844Z,26.67
2018-06-07T06:49:34.695Z,26.73
2018-06-07T06:50:44.641Z,26.67
2018-06-07T06:51:53.590Z,26.63
2018-06-07T06:53:02.534Z,26.6
2018-06-07T06:54:12.001Z,26.75
2018-06-07T06:55:21.439Z,26.63
2018-06-07T06:56:30.878Z,26.69
2018-06-07T06:57:40.823Z,26.65
2018-06-07T06:58:50.241Z,26.65
2018-06-07T07:00:00.179Z,26.65
2018-06-07T07:01:09.869Z,26.73
2018-06-07T07:02:19.305Z,26.75
2018-06-07T07:03:28.738Z,26.8
2018-06-07T07:04:38.149Z,26.65
2018-06-07T07:05:47.329Z,26.65
2018-06-07T07:06:56.820Z,26.67
2018-06-07T07:08:05.990Z,26.72
2018-06-07T07:09:15.575Z,26.8
2018-06-07T07:10:25.164Z,26.63
2018-06-07T07:11:34.899Z,26.7
2018-06-07T07:12:44.314Z,26.63
2018-06-07T07:13:53.749Z,26.8
2018-06-07T07:15:02.896Z,26.73
2018-06-07T07:16:12.064Z,26.67
2018-06-07T07:17:20.955Z,26.72
2018-06-07T07:18:30.381Z,26.73
2018-06-07T07:19:40.065Z,26.69
2018-06-07T07:20:49.491Z,26.66
2018-06-07T07:21:58.409Z,26.6
2018-06-07T07:23:08.430Z,26.73
2018-06-07T07:24:18.490Z,26.7
2018-06-07T07:25:28.190Z,26.69
2018-06-07T07:26:38.132Z,26.75
2018-06-07T07:27:48.081Z,26.7
2018-06-07T07:28:56.993Z,26.73
2018-06-07T07:30:06.199Z,26.7
2018-06-07T07:31:15.112Z,26.72
2018-06-07T07:32:24.531Z,26.69
2018-06-07T07:33:33.689Z,26.76
2018-06-07T07:34:43.397Z,26.72
2018-06-07T07:35:52.825Z,26.73
2018-06-07T07:37:02.251Z,26.72
2018-06-07T07:38:11.679Z,26.7
2018-06-07T07:39:20.830Z,26.73
2018-06-07T07:40:29.743Z,26.73
2018-06-07T07:41:39.426Z,26.69
2018-06-07T07:42:48.351Z,26.75
2018-06-07T07:43:57.522Z,26.69
2018-06-07T07:45:07.209Z,26.67
2018-06-07T07:46:16.625Z,26.73
2018-06-07T07:47:25.815Z,26.77
2018-06-07T07:48:35.578Z,26.81
2018-06-07T07:49:45.029Z,26.73
2018-06-07T07:50:54.742Z,26.77
2018-06-07T07:52:04.452Z,26.72
2018-06-07T07:53:13.879Z,26.7
2018-06-07T07:54:23.291Z,26.75
2018-06-07T07:55:32.719Z,26.72
2018-06-07T07:56:41.373Z,26.7
2018-06-07T07:57:50.799Z,26.73
2018-06-07T07:59:00.210Z,26.7
2018-06-07T08:00:09.910Z,26.7
2018-06-07T08:01:19.321Z,26.8
2018-06-07T08:02:28.749Z,26.77
2018-06-07T08:03:38.171Z,26.73
2018-06-07T08:04:47.338Z,26.72
2018-06-07T08:05:57.028Z,26.75
2018-06-07T08:07:06.211Z,26.7
2018-06-07T08:08:15.433Z,26.8
2018-06-07T08:09:25.109Z,26.73
2018-06-07T08:10:34.792Z,26.81
2018-06-07T08:11:44.492Z,26.75
2018-06-07T08:12:53.924Z,26.75
2018-06-07T08:14:03.082Z,26.81
2018-06-07T08:15:12.248Z,26.77
2018-06-07T08:16:21.729Z,26.8
2018-06-07T08:17:31.401Z,26.81
2018-06-07T08:18:41.352Z,26.73
2018-06-07T08:19:50.569Z,26.7
2018-06-07T08:20:59.977Z,26.81
2018-06-07T08:22:09.665Z,26.75
2018-06-07T08:23:19.612Z,26.82
2018-06-07T08:24:29.291Z,26.76
2018-06-07T08:25:39.221Z,26.8
2018-06-07T08:26:48.898Z,26.77
2018-06-07T08:27:57.790Z,26.8
2018-06-07T08:29:06.968Z,26.72
2018-06-07T08:30:16.138Z,26.8
2018-06-07T08:31:25.816Z,26.72
2018-06-07T08:32:34.973Z,26.73
2018-06-07T08:33:44.120Z,26.82
2018-06-07T08:34:53.804Z,26.77
2018-06-07T08:36:02.709Z,26.76
2018-06-07T08:37:12.397Z,26.75
2018-06-07T08:38:22.081Z,26.82
2018-06-07T08:39:31.611Z,26.75
2018-06-07T08:40:41.075Z,26.75
2018-06-07T08:41:50.767Z,26.7
2018-06-07T08:43:00.194Z,26.8
2018-06-07T08:44:09.098Z,26.72
2018-06-07T08:45:18.516Z,26.8
2018-06-07T08:46:28.457Z,26.73
2018-06-07T08:47:38.142Z,26.76
2018-06-07T08:48:47.314Z,26.75
2018-06-07T08:49:56.477Z,26.76
2018-06-07T08:51:06.162Z,26.82
2018-06-07T08:52:15.326Z,26.77
2018-06-07T08:53:25.263Z,26.8
2018-06-07T08:54:34.709Z,26.85
2018-06-07T08:55:43.878Z,26.75
2018-06-07T08:56:53.048Z,26.85
2018-06-07T08:58:02.477Z,26.8
2018-06-07T08:59:11.949Z,26.75
2018-06-07T09:00:21.374Z,26.75
2018-06-07T09:01:30.744Z,26.76
2018-06-07T09:02:39.901Z,26.72
2018-06-07T09:03:49.079Z,26.84
2018-06-07T09:04:58.260Z,26.8
2018-06-07T09:06:07.688Z,26.76
2018-06-07T09:07:17.095Z,26.8
2018-06-07T09:08:26.797Z,26.75
2018-06-07T09:09:35.956Z,26.76
2018-06-07T09:10:45.642Z,26.76
2018-06-07T09:11:54.541Z,26.75
2018-06-07T09:13:03.994Z,26.77
2018-06-07T09:14:13.136Z,26.8
2018-06-07T09:15:22.559Z,26.73
2018-06-07T09:16:31.991Z,26.77
2018-06-07T09:17:41.489Z,26.8
2018-06-07T09:18:51.641Z,26.76
2018-06-07T09:20:00.819Z,26.77
2018-06-07T09:21:09.986Z,26.8
2018-06-07T09:22:18.908Z,26.76
2018-06-07T09:23:28.075Z,26.73
2018-06-07T09:24:37.746Z,26.84
2018-06-07T09:25:47.189Z,26.8
2018-06-07T09:26:55.849Z,26.81
2018-06-07T09:28:04.762Z,26.85
2018-06-07T09:29:14.191Z,26.77
2018-06-07T09:30:23.359Z,26.8
2018-06-07T09:31:33.074Z,26.73
2018-06-07T09:32:42.499Z,26.75
2018-06-07T09:33:51.913Z,26.76
2018-06-07T09:35:01.093Z,26.77
2018-06-07T09:36:09.992Z,26.81
2018-06-07T09:37:19.418Z,26.8
2018-06-07T09:38:28.583Z,26.73
2018-06-07T09:39:38.023Z,26.8
2018-06-07T09:40:47.445Z,26.81
2018-06-07T09:41:57.122Z,26.72
2018-06-07T09:43:06.819Z,26.75
2018-06-07T09:44:16.246Z,26.81
2018-06-07T09:45:25.431Z,26.81
2018-06-07T09:46:35.128Z,26.82
2018-06-07T09:47:44.294Z,26.82
2018-06-07T09:48:53.720Z,26.81
2018-06-07T09:50:03.406Z,26.72
2018-06-07T09:51:12.566Z,26.81
2018-06-07T09:52:22.006Z,26.75
2018-06-07T09:53:31.205Z,26.77
2018-06-07T09:54:40.632Z,26.75
2018-06-07T09:55:49.829Z,26.77
2018-06-07T09:56:59.787Z,26.81
2018-06-07T09:58:09.630Z,26.82
2018-06-07T09:59:19.618Z,26.84
2018-06-07T10:00:29.060Z,26.82
2018-06-07T10:01:38.756Z,26.73
2018-06-07T10:02:48.186Z,26.8
2018-06-07T10:03:57.364Z,26.87
2018-06-07T10:05:07.043Z,26.75
2018-06-07T10:06:16.467Z,26.82
2018-06-07T10:07:26.154Z,26.81
2018-06-07T10:08:35.328Z,26.75
2018-06-07T10:09:44.758Z,26.75
2018-06-07T10:10:54.198Z,26.75
2018-06-07T10:12:03.633Z,26.82
2018-06-07T10:13:13.332Z,26.72
2018-06-07T10:14:22.247Z,26.75
2018-06-07T10:15:31.661Z,26.73
2018-06-07T10:16:41.086Z,26.82
2018-06-07T10:17:50.231Z,26.81
2018-06-07T10:18:59.895Z,26.88
2018-06-07T10:20:09.322Z,26.75
2018-06-07T10:21:18.747Z,26.75
2018-06-07T10:22:28.531Z,26.87
2018-06-07T10:23:37.954Z,26.76
2018-06-07T10:24:47.112Z,26.8
2018-06-07T10:25:56.542Z,26.75
2018-06-07T10:27:06.247Z,26.82
2018-06-07T10:28:15.931Z,26.85
2018-06-07T10:29:25.361Z,26.87
2018-06-07T10:30:35.038Z,26.72
2018-06-07T10:31:44.712Z,26.87
2018-06-07T10:32:54.119Z,26.82
2018-06-07T10:34:03.021Z,26.77
2018-06-07T10:35:12.441Z,26.85
2018-06-07T10:36:21.860Z,26.87
2018-06-07T10:37:31.285Z,26.75
2018-06-07T10:38:40.198Z,26.81
2018-06-07T10:39:49.354Z,26.8
2018-06-07T10:40:58.514Z,26.81
2018-06-07T10:42:07.419Z,26.8
2018-06-07T10:43:16.828Z,26.82
2018-06-07T10:44:26.242Z,26.87
2018-06-07T10:45:35.159Z,26.81
2018-06-07T10:46:43.843Z,26.77
2018-06-07T10:47:53.012Z,26.84
2018-06-07T10:49:02.443Z,26.8
2018-06-07T10:50:12.004Z,26.87
2018-06-07T10:51:21.289Z,26.88
2018-06-07T10:52:30.969Z,26.72
2018-06-07T10:53:40.156Z,26.82
2018-06-07T10:54:49.581Z,26.87
2018-06-07T10:55:59.033Z,26.82
2018-06-07T10:57:08.189Z,26.85
2018-06-07T10:58:17.607Z,26.82
2018-06-07T10:59:27.019Z,26.84
2018-06-07T11:00:35.697Z,26.87
2018-06-07T11:01:45.129Z,26.84
2018-06-07T11:02:54.558Z,26.87
2018-06-07T11:04:03.985Z,26.85
2018-06-07T11:05:13.153Z,26.82
2018-06-07T11:06:23.068Z,26.82
2018-06-07T11:07:31.981Z,26.82
2018-06-07T11:08:41.392Z,26.88
2018-06-07T11:09:50.294Z,26.85
2018-06-07T11:10:59.702Z,26.85
2018-06-07T11:12:08.875Z,26.85
2018-06-07T11:13:18.033Z,26.87
2018-06-07T11:14:26.984Z,26.8
2018-06-07T11:15:36.938Z,26.82
2018-06-07T11:16:47.038Z,26.85
2018-06-07T11:17:56.726Z,26.84
2018-06-07T11:19:05.679Z,26.85
2018-06-07T11:20:15.091Z,26.85
2018-06-07T11:21:24.519Z,26.84
2018-06-07T11:22:34.223Z,26.89
2018-06-07T11:23:45.960Z,26.81
2018-06-07T11:24:56.128Z,26.82
2018-06-07T11:26:05.795Z,26.84
2018-06-07T11:27:14.958Z,26.89
2018-06-07T11:28:24.636Z,26.85
2018-06-07T11:29:33.793Z,26.85
2018-06-07T11:30:43.481Z,26.82
2018-06-07T11:31:52.389Z,26.84
2018-06-07T11:33:02.330Z,26.85
2018-06-07T11:34:12.020Z,26.85
2018-06-07T11:35:21.692Z,26.82
2018-06-07T11:36:30.590Z,26.87
2018-06-07T11:37:40.015Z,26.85
2018-06-07T11:38:49.693Z,26.89
2018-06-07T11:39:58.593Z,26.89
2018-06-07T11:41:07.784Z,26.87
2018-06-07T11:42:16.722Z,26.89
2018-06-07T11:43:26.411Z,26.85
2018-06-07T11:44:35.857Z,26.85
2018-06-07T11:45:45.013Z,26.87
2018-06-07T11:46:54.186Z,26.87
2018-06-07T11:48:03.609Z,26.84
2018-06-07T11:49:13.132Z,26.84
2018-06-07T11:50:22.542Z,26.87
2018-06-07T11:51:31.963Z,26.85
2018-06-07T11:52:41.645Z,26.84
2018-06-07T11:53:50.859Z,26.89
2018-06-07T11:55:00.506Z,26.89
2018-06-07T11:56:09.719Z,26.89
2018-06-07T11:57:18.592Z,26.87
2018-06-07T11:58:28.025Z,26.84
2018-06-07T11:59:37.715Z,26.87
2018-06-07T12:00:47.981Z,26.85
2018-06-07T12:01:57.414Z,26.81
2018-06-07T12:03:06.868Z,26.87
2018-06-07T12:04:16.297Z,26.89
2018-06-07T12:05:25.010Z,26.85
2018-06-07T12:06:34.451Z,26.87
2018-06-07T12:07:43.609Z,26.84
2018-06-07T12:08:52.777Z,26.85
2018-06-07T12:10:01.940Z,26.84
2018-06-07T12:11:11.353Z,26.92
2018-06-07T12:12:21.289Z,26.88
2018-06-07T12:13:31.076Z,26.82
2018-06-07T12:14:40.785Z,26.82
2018-06-07T12:15:50.253Z,26.85
2018-06-07T12:16:59.411Z,26.92
2018-06-07T12:18:08.618Z,26.85
2018-06-07T12:19:18.037Z,26.91
2018-06-07T12:20:27.717Z,26.84
2018-06-07T12:21:36.879Z,26.82
2018-06-07T12:22:46.292Z,26.82
2018-06-07T12:23:55.464Z,26.77
2018-06-07T12:25:05.402Z,26.85
2018-06-07T12:26:15.346Z,26.85
2018-06-07T12:27:24.536Z,26.82
2018-06-07T12:28:34.202Z,26.82
2018-06-07T12:29:43.888Z,26.87
2018-06-07T12:30:52.818Z,26.82
2018-06-07T12:32:02.435Z,26.85
2018-06-07T12:33:11.971Z,26.82
2018-06-07T12:34:21.181Z,26.82
2018-06-07T12:35:30.607Z,26.88
2018-06-07T12:36:40.038Z,26.87
2018-06-07T12:37:49.202Z,26.91
2018-06-07T12:38:58.103Z,26.87
2018-06-07T12:40:07.577Z,26.82
2018-06-07T12:41:17.648Z,26.92
2018-06-07T12:42:26.540Z,26.92
2018-06-07T12:43:35.709Z,26.91
2018-06-07T12:44:45.148Z,26.91
2018-06-07T12:45:54.322Z,26.85
2018-06-07T12:47:04.634Z,26.99
2018-06-07T12:48:14.649Z,26.89
2018-06-07T12:49:24.070Z,26.92
2018-06-07T12:50:33.221Z,26.89
2018-06-07T12:51:42.117Z,26.88
2018-06-07T12:52:51.824Z,26.92
2018-06-07T12:54:00.995Z,26.81
2018-06-07T12:55:10.887Z,26.92
2018-06-07T12:56:20.665Z,26.94
2018-06-07T12:57:30.620Z,26.91
2018-06-07T12:58:39.780Z,26.92
2018-06-07T12:59:49.207Z,26.91
2018-06-07T13:00:58.382Z,26.97
2018-06-07T13:02:07.809Z,26.92
2018-06-07T13:03:17.331Z,26.94
2018-06-07T13:04:27.519Z,26.95
2018-06-07T13:05:36.944Z,26.95
2018-06-07T13:06:46.877Z,26.95
2018-06-07T13:07:56.986Z,26.92
2018-06-07T13:09:06.136Z,26.94
2018-06-07T13:10:15.374Z,26.89
2018-06-07T13:11:24.620Z,26.95
2018-06-07T13:12:34.297Z,26.95
2018-06-07T13:13:43.979Z,26.99
2018-06-07T13:14:53.404Z,26.99
2018-06-07T13:16:02.835Z,26.95
2018-06-07T13:17:12.005Z,26.94
2018-06-07T13:18:21.428Z,26.95
2018-06-07T13:19:30.608Z,26.91
2018-06-07T13:20:40.060Z,26.94
2018-06-07T13:21:49.478Z,26.91
2018-06-07T13:22:58.654Z,27
2018-06-07T13:24:08.362Z,26.97
2018-06-07T13:25:17.800Z,26.97
2018-06-07T13:26:27.245Z,27
2018-06-07T13:27:36.444Z,26.99
2018-06-07T13:28:46.007Z,26.94
2018-06-07T13:29:55.842Z,27.02
2018-06-07T13:31:05.264Z,27.03
2018-06-07T13:32:14.441Z,27.06
2018-06-07T13:33:24.141Z,27.02
2018-06-07T13:34:33.811Z,27.02
2018-06-07T13:35:43.227Z,26.97
2018-06-07T13:36:52.664Z,27.04
2018-06-07T13:38:02.345Z,27.1
2018-06-07T13:39:11.799Z,27.04
2018-06-07T13:40:21.635Z,27
2018-06-07T13:41:30.813Z,27.09
2018-06-07T13:42:40.496Z,27.06
2018-06-07T13:43:49.661Z,27.12
2018-06-07T13:44:58.852Z,27.1
2018-06-07T13:46:08.027Z,27.09
2018-06-07T13:47:17.179Z,27.03
2018-06-07T13:48:26.860Z,27.09
2018-06-07T13:49:36.558Z,27.12
2018-06-07T13:50:46.258Z,27.13
2018-06-07T13:51:55.530Z,27.14
2018-06-07T13:53:05.515Z,27.14
2018-06-07T13:54:14.431Z,27.13
2018-06-07T13:55:23.598Z,27.14
2018-06-07T13:56:33.273Z,27.14
2018-06-07T13:57:42.698Z,27.21
2018-06-07T13:58:52.135Z,27.18
2018-06-07T14:00:01.324Z,27.17
2018-06-07T14:01:10.490Z,27.12
2018-06-07T14:02:19.383Z,27.18
2018-06-07T14:03:28.799Z,27.17
2018-06-07T14:04:37.990Z,27.24
2018-06-07T14:05:47.488Z,27.24
2018-06-07T14:06:56.897Z,27.28
2018-06-07T14:08:05.560Z,27.17
2018-06-07T14:09:14.726Z,27.12
2018-06-07T14:10:24.395Z,27.22
2018-06-07T14:11:34.226Z,27.18
2018-06-07T14:12:43.918Z,27.28
2018-06-07T14:13:53.596Z,27.25
2018-06-07T14:15:02.789Z,27.25
2018-06-07T14:16:12.729Z,27.25
2018-06-07T14:17:22.685Z,27.27
2018-06-07T14:18:32.329Z,27.25
2018-06-07T14:19:41.752Z,27.27
2018-06-07T14:20:51.185Z,27.21
2018-06-07T14:22:00.896Z,27.28
2018-06-07T14:23:10.335Z,27.24
2018-06-07T14:24:19.238Z,27.21
2018-06-07T14:25:28.454Z,27.28
2018-06-07T14:26:37.890Z,27.24
2018-06-07T14:27:47.334Z,27.25
2018-06-07T14:28:56.536Z,27.29
2018-06-07T14:30:05.970Z,27.25
2018-06-07T14:31:15.395Z,27.27
2018-06-07T14:32:25.073Z,27.28
2018-06-07T14:33:34.783Z,27.24
2018-06-07T14:34:44.742Z,27.22
2018-06-07T14:35:53.895Z,27.22
2018-06-07T14:37:03.587Z,27.31
2018-06-07T14:38:13.008Z,27.25
2018-06-07T14:39:22.446Z,27.21
2018-06-07T14:40:31.629Z,27.29
2018-06-07T14:41:41.063Z,27.25
2018-06-07T14:42:51.003Z,27.19
2018-06-07T14:44:00.430Z,27.28
2018-06-07T14:45:09.899Z,27.21
2018-06-07T14:46:19.323Z,27.28
2018-06-07T14:47:29.268Z,27.22
2018-06-07T14:48:38.679Z,27.24
2018-06-07T14:49:48.406Z,27.18
2018-06-07T14:50:58.093Z,27.21
2018-06-07T14:52:07.252Z,27.19
2018-06-07T14:53:16.417Z,27.21
2018-06-07T14:54:25.859Z,27.24
2018-06-07T14:55:35.373Z,27.25
2018-06-07T14:56:44.539Z,27.25
2018-06-07T14:57:53.717Z,27.21